createdAt,value
2019-02-09T00:00:31.936Z,49.03
2019-02-09T00:03:33.877Z,47.87
2019-02-09T00:06:35.953Z,47.70
2019-02-09T00:09:37.834Z,47.47
2019-02-09T00:12:39.772Z,47.70
2019-02-09T00:15:41.628Z,49.37
2019-02-09T00:18:43.610Z,49.63
2019-02-09T00:21:45.486Z,43.80
2019-02-09T00:24:47.461Z,45.17
2019-02-09T00:27:49.340Z,43.97
2019-02-09T00:30:51.346Z,50.27
2019-02-09T00:33:53.242Z,44.50
2019-02-09T00:36:55.140Z,49.57
2019-02-09T00:39:57.023Z,42.40
2019-02-09T00:42:59.030Z,43.43
2019-02-09T00:46:01.380Z,43.50
2019-02-09T00:49:03.354Z,42.43
2019-02-09T00:52:06.421Z,40.40
2019-02-09T00:55:11.440Z,45.97
2019-02-09T00:58:13.342Z,40.80
2019-02-09T01:01:15.327Z,37.60
2019-02-09T01:04:17.266Z,44.70
2019-02-09T01:07:19.274Z,34.53
2019-02-09T01:10:21.413Z,43.17
2019-02-09T01:13:23.329Z,37.43
2019-02-09T01:16:26.313Z,38.47
2019-02-09T01:19:28.253Z,33.40
2019-02-09T01:22:30.305Z,31.73
2019-02-09T01:25:32.159Z,28.87
2019-02-09T01:28:34.294Z,32.87
2019-02-09T01:31:36.292Z,31.80
2019-02-09T01:34:38.238Z,27.57
2019-02-09T01:37:40.214Z,30.90
2019-02-09T01:40:42.148Z,28.00
2019-02-09T01:43:44.137Z,30.97
2019-02-09T01:46:46.585Z,29.03
2019-02-09T01:49:48.507Z,31.07
2019-02-09T01:52:50.369Z,25.90
2019-02-09T01:55:52.270Z,26.17
2019-02-09T01:58:54.210Z,28.73
2019-02-09T02:01:56.161Z,29.10
2019-02-09T02:04:58.157Z,23.90
2019-02-09T02:08:00.197Z,31.47
2019-02-09T02:11:02.294Z,24.43
2019-02-09T02:14:04.439Z,24.80
2019-02-09T02:17:06.682Z,29.03
2019-02-09T02:20:18.189Z,30.83
2019-02-09T02:23:20.140Z,26.50
2019-02-09T02:26:22.119Z,22.53
2019-02-09T02:29:24.024Z,25.47
2019-02-09T02:32:26.073Z,22.37
2019-02-09T02:35:28.029Z,29.57
2019-02-09T02:38:29.974Z,24.43
2019-02-09T02:41:31.916Z,25.07
2019-02-09T02:44:33.906Z,28.73
2019-02-09T02:47:37.644Z,36.50
2019-02-09T02:50:39.599Z,31.93
2019-02-09T02:53:41.634Z,34.93
2019-02-09T02:56:43.556Z,34.57
2019-02-09T02:59:45.480Z,39.53
2019-02-09T03:02:47.537Z,44.70
2019-02-09T03:05:49.435Z,41.37
2019-02-09T03:08:51.450Z,39.57
2019-02-09T03:11:53.356Z,49.17
2019-02-09T03:14:55.375Z,46.17
2019-02-09T03:17:57.765Z,43.27
2019-02-09T03:20:59.683Z,44.23
2019-02-09T03:24:01.579Z,43.43
2019-02-09T03:27:03.483Z,49.57
2019-02-09T03:30:08.966Z,55.53
2019-02-09T03:33:10.918Z,54.47
2019-02-09T03:36:12.752Z,45.67
2019-02-09T03:39:14.743Z,48.40
2019-02-09T03:42:16.666Z,46.87
2019-02-09T03:45:21.410Z,33.57
2019-02-09T03:48:24.766Z,31.60
2019-02-09T03:51:26.689Z,32.80
2019-02-09T03:54:28.546Z,33.83
2019-02-09T03:57:30.477Z,33.70
2019-02-09T04:00:32.647Z,41.17
2019-02-09T04:03:34.670Z,39.43
2019-02-09T04:06:36.615Z,36.60
2019-02-09T04:09:38.595Z,40.37
2019-02-09T04:12:40.701Z,33.73
2019-02-09T04:15:42.861Z,36.00
2019-02-09T04:18:44.779Z,43.23
2019-02-09T04:21:46.700Z,49.00
2019-02-09T04:24:48.702Z,40.80
2019-02-09T04:27:50.815Z,49.10
2019-02-09T04:30:52.771Z,44.07
2019-02-09T04:33:54.742Z,41.43
2019-02-09T04:36:56.658Z,36.17
2019-02-09T04:39:58.551Z,44.80
2019-02-09T04:43:01.152Z,35.47
2019-02-09T04:46:03.226Z,40.87
2019-02-09T04:49:05.137Z,41.67
2019-02-09T04:52:07.638Z,41.13
2019-02-09T04:55:15.271Z,34.50
2019-02-09T04:58:17.222Z,35.40
2019-02-09T05:01:19.211Z,36.07
2019-02-09T05:04:21.207Z,38.40
2019-02-09T05:07:23.131Z,38.10
2019-02-09T05:10:25.594Z,37.97
2019-02-09T05:13:27.586Z,61.67
2019-02-09T05:16:29.560Z,43.23
2019-02-09T05:19:31.464Z,34.13
2019-02-09T05:22:33.415Z,32.43
2019-02-09T05:25:35.275Z,19.87
2019-02-09T05:28:37.198Z,22.50
2019-02-09T05:31:39.157Z,19.57
2019-02-09T05:34:41.125Z,21.83
2019-02-09T05:37:43.080Z,19.53
2019-02-09T05:40:45.167Z,25.87
2019-02-09T05:43:47.053Z,22.50
2019-02-09T05:46:48.959Z,22.07
2019-02-09T05:49:50.914Z,20.00
2019-02-09T05:52:52.830Z,20.83
2019-02-09T05:55:54.824Z,22.73
2019-02-09T05:58:56.861Z,21.77
2019-02-09T06:01:58.820Z,23.67
2019-02-09T06:05:00.724Z,20.83
2019-02-09T06:08:03.585Z,19.90
2019-02-09T06:11:05.647Z,28.10
2019-02-09T06:14:07.558Z,24.83
2019-02-09T06:17:09.513Z,23.67
2019-02-09T06:20:14.848Z,23.00
2019-02-09T06:23:16.787Z,23.03
2019-02-09T06:26:18.753Z,21.90
2019-02-09T06:29:20.681Z,18.23
2019-02-09T06:32:22.534Z,16.23
2019-02-09T06:35:24.911Z,22.97
2019-02-09T06:38:26.873Z,19.83
2019-02-09T06:41:29.039Z,21.93
2019-02-09T06:44:30.894Z,19.33
2019-02-09T06:47:32.773Z,23.00
2019-02-09T06:50:34.696Z,21.53
2019-02-09T06:53:36.604Z,21.70
2019-02-09T06:56:38.502Z,22.53
2019-02-09T06:59:40.472Z,24.00
2019-02-09T07:02:42.333Z,22.97
2019-02-09T07:05:44.356Z,25.90
2019-02-09T07:08:46.304Z,26.67
2019-02-09T07:11:48.421Z,26.63
2019-02-09T07:14:50.350Z,25.57
2019-02-09T07:17:52.243Z,23.40
2019-02-09T07:20:54.184Z,23.60
2019-02-09T07:23:56.068Z,22.87
2019-02-09T07:26:58.042Z,19.90
2019-02-09T07:29:59.961Z,21.30
2019-02-09T07:33:02.590Z,25.47
2019-02-09T07:36:04.803Z,21.23
2019-02-09T07:39:07.895Z,22.17
2019-02-09T07:42:09.823Z,26.13
2019-02-09T07:45:18.271Z,27.07
2019-02-09T07:48:20.216Z,32.03
2019-02-09T07:51:22.179Z,30.50
2019-02-09T07:54:24.104Z,25.63
2019-02-09T07:57:26.059Z,30.60
2019-02-09T08:00:30.651Z,28.57
2019-02-09T08:03:32.606Z,32.73
2019-02-09T08:06:34.510Z,36.07
2019-02-09T08:09:36.642Z,33.63
2019-02-09T08:12:38.693Z,31.13
2019-02-09T08:15:40.639Z,31.83
2019-02-09T08:18:42.544Z,38.23
2019-02-09T08:21:44.592Z,35.23
2019-02-09T08:24:46.520Z,34.00
2019-02-09T08:27:49.208Z,33.73
2019-02-09T08:30:51.302Z,28.80
2019-02-09T08:33:53.269Z,29.90
2019-02-09T08:36:55.156Z,29.77
2019-02-09T08:39:58.144Z,38.60
2019-02-09T08:43:00.154Z,30.53
2019-02-09T08:46:02.197Z,28.40
2019-02-09T08:49:05.533Z,30.27
2019-02-09T08:52:07.571Z,31.57
2019-02-09T08:55:09.458Z,30.70
2019-02-09T08:58:11.411Z,27.63
2019-02-09T09:01:13.471Z,32.77
2019-02-09T09:04:15.438Z,29.87
2019-02-09T09:07:17.341Z,33.50
2019-02-09T09:10:28.028Z,34.80
2019-02-09T09:13:30.008Z,35.03
2019-02-09T09:16:31.953Z,34.30
2019-02-09T09:19:33.875Z,35.70
2019-02-09T09:22:35.787Z,34.13
2019-02-09T09:25:37.649Z,34.60
2019-02-09T09:28:39.605Z,33.33
2019-02-09T09:31:41.494Z,34.63
2019-02-09T09:34:43.378Z,37.93
2019-02-09T09:37:45.256Z,38.07
2019-02-09T09:40:47.260Z,36.33
2019-02-09T09:43:49.172Z,36.50
2019-02-09T09:46:51.177Z,34.47
2019-02-09T09:49:53.149Z,45.33
2019-02-09T09:52:55.042Z,31.87
2019-02-09T09:55:56.977Z,38.00
2019-02-09T09:58:58.937Z,35.00
2019-02-09T10:02:02.175Z,33.90
2019-02-09T10:05:06.954Z,30.77
2019-02-09T10:08:08.955Z,28.20
2019-02-09T10:11:10.940Z,34.60
2019-02-09T10:14:12.940Z,30.60
2019-02-09T10:17:15.230Z,30.00
2019-02-09T10:20:19.118Z,30.97
2019-02-09T10:23:21.043Z,30.60
2019-02-09T10:26:22.947Z,28.23
2019-02-09T10:29:24.868Z,30.67
2019-02-09T10:32:26.818Z,29.63
2019-02-09T10:35:28.976Z,30.37
2019-02-09T10:38:30.902Z,29.07
2019-02-09T10:41:32.860Z,17.00
2019-02-09T10:44:34.820Z,22.30
2019-02-09T10:47:37.435Z,17.87
2019-02-09T10:50:45.656Z,18.77
2019-02-09T10:53:47.609Z,15.87
2019-02-09T10:56:49.535Z,12.10
2019-02-09T10:59:51.516Z,11.13
2019-02-09T11:02:53.441Z,13.73
2019-02-09T11:05:55.486Z,14.33
2019-02-09T11:08:57.376Z,12.43
2019-02-09T11:11:59.444Z,11.23
2019-02-09T11:15:01.472Z,11.23
2019-02-09T11:18:05.054Z,9.83
2019-02-09T11:21:06.954Z,16.77
2019-02-09T11:24:08.872Z,14.93
2019-02-09T11:27:11.307Z,12.53
2019-02-09T11:30:22.582Z,10.40
2019-02-09T11:33:24.677Z,15.00
2019-02-09T11:36:26.565Z,18.87
2019-02-09T11:39:28.463Z,14.40
2019-02-09T11:42:30.426Z,17.33
2019-02-09T11:45:35.171Z,17.27
2019-02-09T11:48:37.704Z,17.17
2019-02-09T11:51:39.724Z,14.83
2019-02-09T11:54:41.655Z,17.20
2019-02-09T11:57:43.633Z,18.37
2019-02-09T12:00:48.717Z,15.13
2019-02-09T12:03:50.623Z,15.00
2019-02-09T12:06:52.575Z,19.50
2019-02-09T12:09:54.466Z,22.83
2019-02-09T12:12:56.616Z,22.83
2019-02-09T12:15:58.721Z,22.60
2019-02-09T12:19:00.680Z,22.43
2019-02-09T12:22:03.207Z,25.07
2019-02-09T12:25:08.771Z,26.43
2019-02-09T12:28:12.409Z,20.47
2019-02-09T12:31:14.348Z,24.47
2019-02-09T12:34:16.278Z,22.43
2019-02-09T12:37:18.193Z,26.17
2019-02-09T12:40:26.189Z,26.80
2019-02-09T12:43:28.349Z,25.27
2019-02-09T12:46:30.445Z,23.53
2019-02-09T12:49:33.033Z,23.03
2019-02-09T12:52:34.952Z,19.13
2019-02-09T12:55:36.825Z,15.87
2019-02-09T12:58:38.745Z,13.77
2019-02-09T13:01:40.631Z,11.73
2019-02-09T13:04:42.555Z,12.83
2019-02-09T13:07:44.656Z,12.50
2019-02-09T13:10:46.590Z,11.07
2019-02-09T13:13:48.553Z,8.50
2019-02-09T13:16:50.637Z,12.27
2019-02-09T13:19:52.592Z,11.83
2019-02-09T13:22:55.217Z,12.23
2019-02-09T13:25:57.143Z,8.97
2019-02-09T13:28:59.088Z,10.40
2019-02-09T13:32:01.069Z,10.93
2019-02-09T13:35:04.946Z,12.13
2019-02-09T13:38:07.081Z,10.70
2019-02-09T13:41:09.202Z,9.43
2019-02-09T13:44:11.270Z,15.60
2019-02-09T13:47:13.251Z,12.40
2019-02-09T13:50:25.040Z,10.43
2019-02-09T13:53:28.402Z,13.47
2019-02-09T13:56:30.352Z,13.03
2019-02-09T13:59:32.248Z,13.93
2019-02-09T14:02:34.230Z,9.67
2019-02-09T14:05:36.241Z,12.90
2019-02-09T14:08:38.200Z,13.07
2019-02-09T14:11:40.053Z,10.70
2019-02-09T14:14:42.058Z,16.37
2019-02-09T14:17:44.038Z,10.23
2019-02-09T14:20:45.992Z,11.07
2019-02-09T14:23:47.888Z,12.00
2019-02-09T14:26:49.883Z,12.07
2019-02-09T14:29:51.811Z,9.13
2019-02-09T14:32:54.141Z,8.17
2019-02-09T14:35:55.999Z,10.53
2019-02-09T14:38:57.935Z,12.93
2019-02-09T14:41:59.865Z,11.53
2019-02-09T14:45:02.003Z,13.87
2019-02-09T14:48:03.981Z,10.97
2019-02-09T14:51:05.910Z,12.17
2019-02-09T14:54:07.912Z,13.90
2019-02-09T14:57:09.838Z,17.03
2019-02-09T15:00:17.689Z,15.23
2019-02-09T15:03:25.969Z,18.23
2019-02-09T15:06:23.595Z,18.03
2019-02-09T15:09:25.555Z,16.90
2019-02-09T15:12:27.482Z,23.77
2019-02-09T15:15:35.908Z,22.10
2019-02-09T15:18:37.890Z,24.00
2019-02-09T15:21:39.824Z,26.00
2019-02-09T15:24:41.755Z,20.47
2019-02-09T15:27:43.667Z,19.80
2019-02-09T15:30:46.655Z,20.50
2019-02-09T15:33:48.632Z,17.27
2019-02-09T15:36:50.541Z,14.57
2019-02-09T15:39:52.467Z,21.57
2019-02-09T15:42:54.350Z,16.73
2019-02-09T15:45:56.292Z,14.30
2019-02-09T15:48:58.206Z,17.80
2019-02-09T15:52:00.140Z,18.23
2019-02-09T15:55:04.693Z,17.00
2019-02-09T15:58:06.662Z,23.20
2019-02-09T16:01:08.545Z,21.67
2019-02-09T16:04:17.696Z,27.17
2019-02-09T16:07:16.021Z,19.33
2019-02-09T16:10:20.505Z,32.13
2019-02-09T16:13:22.413Z,20.70
2019-02-09T16:16:24.366Z,23.67
2019-02-09T16:19:26.389Z,26.53
2019-02-09T16:22:28.324Z,25.63
2019-02-09T16:25:30.467Z,25.00
2019-02-09T16:28:32.330Z,30.30
2019-02-09T16:31:35.976Z,37.90
2019-02-09T16:34:38.118Z,26.80
2019-02-09T16:37:40.045Z,25.43
2019-02-09T16:40:41.911Z,31.27
2019-02-09T16:43:43.820Z,28.03
2019-02-09T16:46:45.810Z,25.43
2019-02-09T16:49:49.547Z,35.33
2019-02-09T16:52:52.774Z,41.97
2019-02-09T16:55:55.094Z,44.63
2019-02-09T16:58:57.060Z,43.20
2019-02-09T17:01:59.102Z,32.97
2019-02-09T17:05:01.033Z,36.73
2019-02-09T17:08:05.287Z,35.33
2019-02-09T17:11:07.831Z,41.60
2019-02-09T17:14:09.816Z,41.67
2019-02-09T17:17:11.775Z,31.57
2019-02-09T17:20:14.700Z,32.80
2019-02-09T17:23:16.596Z,32.13
2019-02-09T17:26:19.822Z,33.30
2019-02-09T17:29:21.860Z,28.80
2019-02-09T17:32:23.858Z,37.43
2019-02-09T17:35:26.998Z,36.40
2019-02-09T17:38:31.098Z,43.37
2019-02-09T17:41:34.906Z,51.40
2019-02-09T17:44:38.987Z,47.03
2019-02-09T17:47:41.000Z,51.30
2019-02-09T17:50:42.920Z,44.73
2019-02-09T17:53:44.960Z,43.30
2019-02-09T17:56:46.933Z,40.83
2019-02-09T17:59:48.935Z,37.63
2019-02-09T18:02:50.788Z,35.53
2019-02-09T18:05:52.792Z,28.17
2019-02-09T18:08:55.873Z,22.77
2019-02-09T18:11:57.842Z,26.37
2019-02-09T18:15:01.606Z,19.00
2019-02-09T18:18:04.581Z,22.13
2019-02-09T18:21:08.352Z,20.73
2019-02-09T18:24:10.282Z,23.40
2019-02-09T18:27:12.158Z,19.23
2019-02-09T18:30:26.221Z,19.07
2019-02-09T18:33:31.044Z,18.17
2019-02-09T18:36:33.033Z,20.20
2019-02-09T18:39:34.885Z,20.43
2019-02-09T18:42:36.879Z,19.03
2019-02-09T18:45:39.128Z,19.47
2019-02-09T18:48:41.470Z,31.20
2019-02-09T18:51:43.393Z,26.23
2019-02-09T18:54:45.350Z,32.27
2019-02-09T18:57:48.703Z,27.27
2019-02-09T19:00:50.842Z,21.47
2019-02-09T19:03:53.163Z,22.27
2019-02-09T19:06:55.058Z,19.53
2019-02-09T19:09:58.165Z,19.33
2019-02-09T19:13:00.152Z,16.53
2019-02-09T19:16:02.033Z,22.10
2019-02-09T19:19:05.122Z,21.47
2019-02-09T19:22:07.205Z,19.27
2019-02-09T19:25:13.085Z,20.13
2019-02-09T19:28:15.119Z,20.77
2019-02-09T19:31:23.116Z,18.47
2019-02-09T19:34:25.046Z,20.90
2019-02-09T19:37:26.953Z,22.53
2019-02-09T19:40:28.949Z,18.90
2019-02-09T19:43:33.928Z,28.97
2019-02-09T19:46:37.404Z,25.53
2019-02-09T19:49:39.724Z,28.77
2019-02-09T19:52:42.752Z,24.70
2019-02-09T19:55:44.671Z,24.93
2019-02-09T19:58:46.924Z,34.90
2019-02-09T20:01:49.258Z,29.30
2019-02-09T20:04:51.639Z,29.43
2019-02-09T20:07:55.549Z,31.03
2019-02-09T20:10:57.677Z,29.80
2019-02-09T20:13:59.622Z,22.40
2019-02-09T20:17:01.996Z,26.77
2019-02-09T20:20:09.758Z,26.07
2019-02-09T20:23:12.429Z,24.83
2019-02-09T20:26:16.139Z,32.23
2019-02-09T20:29:18.168Z,30.77
2019-02-09T20:32:20.412Z,24.57
2019-02-09T20:35:27.870Z,27.30
2019-02-09T20:38:28.108Z,22.70
2019-02-09T20:41:31.557Z,28.63
2019-02-09T20:44:35.121Z,30.37
2019-02-09T20:47:39.381Z,27.50
2019-02-09T20:50:42.699Z,33.63
2019-02-09T20:53:44.659Z,28.67
2019-02-09T20:56:46.578Z,29.10
2019-02-09T20:59:48.841Z,29.87
2019-02-09T21:02:51.454Z,30.97
2019-02-09T21:05:54.919Z,28.63
2019-02-09T21:08:58.083Z,29.30
2019-02-09T21:12:00.044Z,29.10
2019-02-09T21:15:01.955Z,24.53
2019-02-09T21:18:06.363Z,24.87
2019-02-09T21:21:08.311Z,28.33
2019-02-09T21:24:10.833Z,27.87
2019-02-09T21:27:14.258Z,23.83
2019-02-09T21:30:20.822Z,33.23
2019-02-09T21:33:22.863Z,27.50
2019-02-09T21:36:25.207Z,26.90
2019-02-09T21:39:33.892Z,23.20
2019-02-09T21:42:33.502Z,26.37
2019-02-09T21:45:44.582Z,26.07
2019-02-09T21:48:41.122Z,22.77
2019-02-09T21:51:43.414Z,22.87
2019-02-09T21:54:45.371Z,26.87
2019-02-09T21:57:49.167Z,23.80
2019-02-09T22:00:55.674Z,17.40
2019-02-09T22:03:58.959Z,23.40
2019-02-09T22:07:00.908Z,25.20
2019-02-09T22:10:06.507Z,24.03
2019-02-09T22:13:08.441Z,22.10
2019-02-09T22:16:11.483Z,19.57
2019-02-09T22:19:13.444Z,17.73
2019-02-09T22:22:15.422Z,12.67
2019-02-09T22:25:25.711Z,10.50
2019-02-09T22:28:27.644Z,13.93
2019-02-09T22:31:29.570Z,9.80
2019-02-09T22:34:31.894Z,12.60
2019-02-09T22:37:33.926Z,10.90
2019-02-09T22:40:40.463Z,13.57
2019-02-09T22:43:42.370Z,15.53
2019-02-09T22:46:44.345Z,15.97
2019-02-09T22:49:46.246Z,14.27
2019-02-09T22:52:48.327Z,14.40
2019-02-09T22:55:50.189Z,14.93
2019-02-09T22:58:52.101Z,11.47
2019-02-09T23:01:54.067Z,9.87
2019-02-09T23:04:56.294Z,13.73
2019-02-09T23:07:58.242Z,14.83
2019-02-09T23:11:00.186Z,15.87
2019-02-09T23:14:02.112Z,17.77
2019-02-09T23:17:03.988Z,13.10
2019-02-09T23:20:07.418Z,14.57
2019-02-09T23:23:09.392Z,16.47
2019-02-09T23:26:12.254Z,12.13
2019-02-09T23:29:14.136Z,14.37
2019-02-09T23:32:16.052Z,13.60
2019-02-09T23:35:17.938Z,15.10
2019-02-09T23:38:19.936Z,11.23
2019-02-09T23:41:21.877Z,11.93
2019-02-09T23:44:23.799Z,16.90
2019-02-09T23:47:25.751Z,18.53
2019-02-09T23:50:27.743Z,18.37
2019-02-09T23:53:29.729Z,13.97
2019-02-09T23:56:31.783Z,14.30
2019-02-09T23:59:33.638Z,13.13
